Terminal Aerodrome Forecast
Issued by NWS

Home | Current Version | Previous Version | Graphics & Text | Print | Product List | Glossary On
Versions: 1 2 3 4 5 6 7 8 9 10 11 12 13 14 15 16 17
000
FTUS43 KICT 260500
TAFSLN
TAF
KSLN 260520Z 2606/2706 34008KT P6SM VCTS BKN090CB
     FM260700 09006KT P6SM BKN100
     FM261500 14007KT P6SM SCT120
     FM261800 17010KT P6SM FEW250=

USA.gov is the U.S. government's official web portal to all federal, state and local government web resources and services.